createdAt,value
2022-08-29T00:04:53.400Z,13.94
2022-08-29T00:09:57.028Z,13.72
2022-08-29T00:14:59.662Z,13.77
2022-08-29T00:20:04.579Z,13.78
2022-08-29T00:25:08.938Z,13.80
2022-08-29T00:30:12.753Z,13.89
2022-08-29T00:35:19.945Z,13.75
2022-08-29T00:40:26.680Z,13.72
2022-08-29T00:45:29.910Z,13.62
2022-08-29T00:50:36.829Z,13.45
2022-08-29T00:55:40.663Z,13.26
2022-08-29T01:00:44.505Z,13.15
2022-08-29T01:05:48.943Z,13.20
2022-08-29T01:11:09.528Z,13.28
2022-08-29T01:16:13.370Z,13.22
2022-08-29T01:21:21.202Z,13.24
2022-08-29T01:26:28.149Z,13.12
2022-08-29T01:31:57.326Z,13.16
2022-08-29T01:37:02.941Z,12.92
2022-08-29T01:42:10.003Z,12.90
2022-08-29T01:47:12.643Z,12.93
2022-08-29T01:52:19.414Z,12.87
2022-08-29T01:57:23.400Z,12.78
2022-08-29T02:02:28.768Z,12.79
2022-08-29T02:07:31.495Z,12.77
2022-08-29T02:12:36.557Z,12.80
2022-08-29T02:17:39.329Z,12.57
2022-08-29T02:22:42.242Z,12.52
2022-08-29T02:27:46.243Z,12.52
2022-08-29T02:32:50.147Z,12.22
2022-08-29T02:37:53.393Z,12.33
2022-08-29T02:42:57.383Z,12.36
2022-08-29T02:48:00.150Z,12.46
2022-08-29T02:53:03.124Z,12.50
2022-08-29T02:58:07.857Z,12.51
2022-08-29T03:03:11.568Z,12.53
2022-08-29T03:08:14.932Z,12.54
2022-08-29T03:13:20.180Z,12.42
2022-08-29T03:18:23.044Z,12.17
2022-08-29T03:23:25.696Z,12.14
2022-08-29T03:28:30.301Z,12.05
2022-08-29T03:33:32.969Z,11.91
2022-08-29T03:38:37.941Z,11.82
2022-08-29T03:43:41.997Z,11.90
2022-08-29T03:48:44.638Z,12.00
2022-08-29T03:53:47.752Z,11.68
2022-08-29T03:58:53.266Z,11.78
2022-08-29T04:03:57.529Z,11.83
2022-08-29T04:09:00.240Z,11.78
2022-08-29T04:14:04.213Z,11.67
2022-08-29T04:19:06.868Z,11.58
2022-08-29T04:24:11.668Z,11.43
2022-08-29T04:29:15.720Z,11.28
2022-08-29T04:34:18.564Z,11.55
2022-08-29T04:39:21.196Z,11.50
2022-08-29T04:44:25.185Z,11.43
2022-08-29T04:49:27.831Z,11.47
2022-08-29T04:54:30.681Z,11.45
2022-08-29T04:59:36.198Z,11.39
2022-08-29T05:04:38.845Z,11.31
2022-08-29T05:09:41.533Z,11.08
2022-08-29T05:14:45.512Z,11.06
2022-08-29T05:19:48.162Z,11.07
2022-08-29T05:24:51.252Z,11.19
2022-08-29T05:29:55.231Z,11.25
2022-08-29T05:34:58.808Z,11.36
2022-08-29T05:40:01.479Z,11.41
2022-08-29T05:45:06.922Z,11.67
2022-08-29T05:50:11.710Z,11.76
2022-08-29T05:55:14.443Z,11.95
2022-08-29T06:00:19.257Z,11.96
2022-08-29T06:05:21.953Z,11.97
2022-08-29T06:10:24.637Z,12.30
2022-08-29T06:15:29.834Z,12.29
2022-08-29T06:20:32.823Z,12.40
2022-08-29T06:25:39.895Z,12.68
2022-08-29T06:30:44.321Z,12.82
2022-08-29T06:35:46.975Z,13.15
2022-08-29T06:40:49.942Z,13.19
2022-08-29T06:45:54.100Z,13.42
2022-08-29T06:50:57.420Z,13.50
2022-08-29T06:56:05.429Z,13.69
2022-08-29T07:01:11.160Z,13.73
2022-08-29T07:06:14.666Z,13.75
2022-08-29T07:11:17.537Z,14.07
2022-08-29T07:16:23.043Z,14.35
2022-08-29T07:21:27.197Z,14.26
2022-08-29T07:26:32.041Z,14.28
2022-08-29T07:31:36.091Z,14.35
2022-08-29T07:36:39.638Z,14.68
2022-08-29T07:41:43.532Z,14.66
2022-08-29T07:46:47.609Z,15.16
2022-08-29T07:51:50.276Z,15.10
2022-08-29T07:56:53.949Z,15.59
2022-08-29T08:01:57.971Z,15.80
2022-08-29T08:07:01.849Z,16.00
2022-08-29T08:12:08.313Z,15.93
2022-08-29T08:17:12.472Z,16.27
2022-08-29T08:22:15.107Z,16.56
2022-08-29T08:27:17.798Z,16.63
2022-08-29T08:32:21.859Z,16.72
2022-08-29T08:37:27.878Z,17.01
2022-08-29T08:42:40.070Z,17.37
2022-08-29T08:47:46.106Z,17.25
2022-08-29T08:52:51.668Z,17.30
2022-08-29T08:58:02.370Z,17.47
2022-08-29T09:03:14.126Z,17.35
2022-08-29T09:08:23.737Z,17.70
2022-08-29T09:13:38.471Z,17.69
2022-08-29T09:18:44.456Z,17.81
2022-08-29T09:23:57.541Z,17.57
2022-08-29T09:29:00.363Z,17.77
2022-08-29T09:34:07.759Z,17.40
2022-08-29T09:39:18.562Z,17.63
2022-08-29T09:44:26.537Z,18.46
2022-08-29T09:49:30.518Z,18.78
2022-08-29T09:54:33.309Z,18.70
2022-08-29T09:59:39.315Z,18.90
2022-08-29T10:04:47.049Z,18.51
2022-08-29T10:10:02.327Z,19.67
2022-08-29T10:15:09.824Z,19.59
2022-08-29T10:20:13.834Z,19.61
2022-08-29T10:25:20.781Z,20.14
2022-08-29T10:30:27.490Z,20.08
2022-08-29T10:35:35.682Z,20.28
2022-08-29T10:40:43.171Z,20.01
2022-08-29T10:46:05.764Z,19.61
2022-08-29T10:51:18.495Z,20.52
2022-08-29T10:56:24.136Z,20.68
2022-08-29T11:01:31.190Z,20.46
2022-08-29T11:11:53.774Z,20.81
2022-08-29T11:16:58.331Z,21.57
2022-08-29T11:22:13.920Z,21.21
2022-08-29T11:27:23.096Z,21.80
2022-08-29T11:32:33.509Z,21.60
2022-08-29T11:38:23.676Z,22.42
2022-08-29T11:43:28.060Z,22.47
2022-08-29T11:48:34.808Z,21.72
2022-08-29T11:53:37.540Z,20.10
2022-08-29T11:58:47.999Z,21.37
2022-08-29T12:03:50.694Z,21.73
2022-08-29T12:09:00.685Z,22.69
2022-08-29T12:14:06.920Z,22.70
2022-08-29T12:19:09.617Z,21.95
2022-08-29T12:24:31.332Z,21.79
2022-08-29T12:29:44.718Z,22.11
2022-08-29T12:35:31.185Z,21.88
2022-08-29T12:40:50.394Z,21.56
2022-08-29T12:45:54.706Z,22.48
2022-08-29T12:50:57.342Z,22.93
2022-08-29T12:56:02.872Z,22.44
2022-08-29T13:01:09.889Z,23.33
2022-08-29T13:06:14.616Z,23.56
2022-08-29T13:11:20.961Z,23.56
2022-08-29T13:16:26.297Z,23.93
2022-08-29T13:21:31.761Z,23.72
2022-08-29T13:26:35.625Z,23.62
2022-08-29T13:31:40.246Z,24.01
2022-08-29T13:36:49.152Z,23.68
2022-08-29T13:42:04.748Z,23.75
2022-08-29T13:47:16.319Z,23.67
2022-08-29T13:52:20.389Z,24.31
2022-08-29T13:57:25.091Z,24.14
2022-08-29T14:02:29.369Z,23.32
2022-08-29T14:07:32.762Z,22.97
2022-08-29T14:12:35.441Z,23.31
2022-08-29T14:17:40.203Z,23.41
2022-08-29T14:22:42.924Z,22.98
2022-08-29T14:27:47.441Z,23.10
2022-08-29T14:32:51.545Z,23.11
2022-08-29T14:37:55.345Z,23.69
2022-08-29T14:42:58.307Z,23.66
2022-08-29T14:48:02.339Z,23.19
2022-08-29T14:53:05.392Z,23.31
2022-08-29T14:58:08.143Z,23.70
2022-08-29T15:03:12.207Z,23.14
2022-08-29T15:08:15.916Z,23.40
2022-08-29T15:13:18.723Z,23.17
2022-08-29T15:19:07.259Z,23.44
2022-08-29T15:23:48.916Z,23.35
2022-08-29T15:28:54.661Z,22.66
2022-08-29T15:33:58.949Z,22.86
2022-08-29T15:39:04.952Z,22.66
2022-08-29T15:44:07.871Z,22.53
2022-08-29T15:49:14.911Z,22.55
2022-08-29T15:54:17.957Z,22.87
2022-08-29T15:59:35.819Z,22.94
2022-08-29T16:04:47.583Z,22.76
2022-08-29T16:09:50.411Z,23.05
2022-08-29T16:15:01.263Z,22.92
2022-08-29T16:20:10.691Z,22.76
2022-08-29T16:25:14.594Z,22.92
2022-08-29T16:30:18.754Z,22.63
2022-08-29T16:35:23.624Z,22.59
2022-08-29T16:40:27.342Z,22.45
2022-08-29T16:45:30.659Z,22.40
2022-08-29T16:50:34.741Z,22.44
2022-08-29T16:55:37.430Z,22.37
2022-08-29T17:00:40.265Z,22.29
2022-08-29T17:05:44.352Z,22.35
2022-08-29T17:10:46.419Z,22.24
2022-08-29T17:15:48.243Z,22.22
2022-08-29T17:20:53.980Z,22.17
2022-08-29T17:25:57.422Z,22.12
2022-08-29T17:31:00.297Z,22.09
2022-08-29T17:36:06.109Z,21.97
2022-08-29T17:41:15.326Z,21.91
2022-08-29T17:46:21.822Z,21.86
2022-08-29T17:51:28.220Z,21.83
2022-08-29T17:56:44.508Z,21.76
2022-08-29T18:01:48.079Z,21.58
2022-08-29T18:06:52.797Z,21.50
2022-08-29T18:11:58.086Z,21.40
2022-08-29T18:17:01.562Z,21.26
2022-08-29T18:22:06.350Z,21.15
2022-08-29T18:27:09.251Z,20.99
2022-08-29T18:32:12.109Z,20.89
2022-08-29T18:37:16.326Z,20.72
2022-08-29T18:42:38.737Z,20.64
2022-08-29T18:47:43.401Z,20.59
2022-08-29T18:52:47.878Z,20.49
2022-08-29T18:57:52.057Z,20.43
2022-08-29T19:02:56.525Z,20.30
2022-08-29T19:08:01.969Z,20.20
2022-08-29T19:13:07.734Z,20.10
2022-08-29T19:18:10.935Z,19.55
2022-08-29T19:23:15.147Z,19.60
2022-08-29T19:28:19.733Z,19.58
2022-08-29T19:33:22.827Z,19.54
2022-08-29T19:38:27.514Z,19.69
2022-08-29T19:43:33.905Z,19.54
2022-08-29T19:48:36.733Z,19.40
2022-08-29T19:53:42.213Z,19.20
2022-08-29T19:58:46.235Z,19.14
2022-08-29T20:03:48.924Z,19.05
2022-08-29T20:08:52.978Z,18.98
2022-08-29T20:13:57.687Z,19.01
2022-08-29T20:19:02.632Z,18.83
2022-08-29T20:24:09.317Z,18.72
2022-08-29T20:29:13.159Z,18.53
2022-08-29T20:34:16.347Z,18.58
2022-08-29T20:39:21.858Z,18.31
2022-08-29T20:44:27.360Z,18.27
2022-08-29T20:49:33.457Z,18.41
2022-08-29T20:54:38.762Z,18.23
2022-08-29T20:59:41.555Z,18.05
2022-08-29T21:05:01.777Z,18.20
2022-08-29T21:10:07.521Z,18.22
2022-08-29T21:15:10.513Z,17.89
2022-08-29T21:20:13.412Z,17.94
2022-08-29T21:25:17.804Z,17.96
2022-08-29T21:30:20.796Z,17.82
2022-08-29T21:35:24.468Z,17.95
2022-08-29T21:40:28.743Z,17.85
2022-08-29T21:45:34.663Z,17.99
2022-08-29T21:50:38.464Z,17.89
2022-08-29T21:55:43.700Z,17.91
2022-08-29T22:00:46.547Z,17.89
2022-08-29T22:05:49.507Z,17.88
2022-08-29T22:10:53.544Z,17.82
2022-08-29T22:16:13.816Z,17.71
2022-08-29T22:21:16.742Z,17.67
2022-08-29T22:26:21.154Z,17.62
2022-08-29T22:31:24.619Z,17.67
2022-08-29T22:36:27.683Z,17.50
2022-08-29T22:41:31.708Z,17.40
2022-08-29T22:46:35.832Z,17.32
2022-08-29T22:51:38.558Z,17.32
2022-08-29T22:56:44.515Z,17.31
2022-08-29T23:01:47.234Z,17.35
2022-08-29T23:06:50.463Z,17.30
2022-08-29T23:11:54.709Z,17.23
2022-08-29T23:16:57.409Z,17.12
2022-08-29T23:22:02.129Z,16.99
2022-08-29T23:27:06.559Z,17.09
2022-08-29T23:32:09.284Z,17.03
2022-08-29T23:37:12.761Z,16.92
2022-08-29T23:42:16.788Z,16.64
2022-08-29T23:47:20.009Z,16.92
2022-08-29T23:52:22.699Z,16.88
2022-08-29T23:57:26.744Z,16.78
